Airfield :
LOGIN :

Register | Disclaimer

   EN    FR    IT 

 










Legend :    VFR   Marginal VFR   IFR   Intensive IFR   Very Intensive IFR
Visi :
Ceiling :
>= 8 km
>= 3000ft
5 to 8 km
1000 to 3000 ft
1500m to 5 km
500 to 1000 ft
800 to 1500m
200 to 500 ft
< 800m
< 200 ft
Symbols :   Thunderstorms  Fog  Heavy snow  Heavy precipitations  Wind > 20 kt
SIGMETs :     Misc.  Thunderstorms  Icing  Turbulence  Mountain Waves  Volcanic Ashes






- Airport Elevation : 327 ft
- IATA code : BHX


EGBB - Birmingham

CURRENT METAR :
  • 211350Z 03010KT 350V090 9999 SCT049 11/M01 Q1031

EXPIRED METARs :
  • 211250Z 04009KT 340V070 9999 SCT044 10/M00 Q1031
  • 211220Z 06008KT 020V110 9999 SCT044 10/M01 Q1031
  • 211150Z 04010KT 360V070 9999 SCT040 10/00 Q1032
  • 211120Z 02009KT 350V070 9999 SCT040 10/M00 Q1032
  • 211050Z 05009KT 360V090 9999 SCT040 09/M00 Q1032
  • 211020Z 06009KT 020V110 9999 SCT037 09/00 Q1032
  • 210950Z 04010KT 9999 SCT034 09/01 Q1031
  • 210920Z 03009KT 9999 SCT036 09/00 Q1031

TAF TAF EGBB
Valid from the 21 at 12:00 until the 22 at 12:00 UTC


211103Z 2112/2212 03010KT 9999 SCT030
BECMG 2120/2123 09004KT
PROB30
TEMPO 2204/2207 8000 -RA
TEMPO 2207/2212 8000 -RA BKN012
PROB30
TEMPO 2207/2212 4000 RA BKN008
ATIS : +44 121 780 0910



MET'MAP, your aeronautical weather chart ! - Copyright ORBIFLY December 2007 - Disclaimer

ORBIFLY MET'MAP TEAM :

Programming & Development : Alexandra Zaïnal
Original concept : Baudouin d'Aumeries
Technical & hardware support : Manuel Goepfert
Assistance : Marc-Olivier Méhu




SOURCES & CREDITS :

   NOAA